createdAt,value
2024-01-26T00:01:23.644Z,100.00
2024-01-26T00:03:52.462Z,100.00
2024-01-26T00:06:19.880Z,100.00
2024-01-26T00:08:46.908Z,100.00
2024-01-26T00:11:17.768Z,100.00
2024-01-26T00:13:44.694Z,100.00
2024-01-26T00:16:11.670Z,100.00
2024-01-26T00:18:40.441Z,100.00
2024-01-26T00:21:08.363Z,100.00
2024-01-26T00:23:36.826Z,100.00
2024-01-26T00:26:03.921Z,100.00
2024-01-26T00:28:30.896Z,100.00
2024-01-26T00:30:57.886Z,100.00
2024-01-26T00:33:25.005Z,100.00
2024-01-26T00:35:52.046Z,100.00
2024-01-26T00:38:19.022Z,100.00
2024-01-26T00:40:46.026Z,100.00
2024-01-26T00:43:12.990Z,100.00
2024-01-26T00:45:40.369Z,100.00
2024-01-26T00:48:07.943Z,100.00
2024-01-26T00:50:35.522Z,100.00
2024-01-26T00:53:03.232Z,100.00
2024-01-26T00:55:30.768Z,100.00
2024-01-26T00:57:58.185Z,100.00
2024-01-26T01:00:26.010Z,100.00
2024-01-26T01:02:54.856Z,100.00
2024-01-26T01:05:22.018Z,100.00
2024-01-26T01:07:49.198Z,100.00
2024-01-26T01:10:16.942Z,100.00
2024-01-26T01:12:44.805Z,100.00
2024-01-26T01:15:15.045Z,100.00
2024-01-26T01:17:47.043Z,100.00
2024-01-26T01:20:15.214Z,100.00
2024-01-26T01:22:43.218Z,100.00
2024-01-26T01:25:13.289Z,100.00
2024-01-26T01:27:40.522Z,100.00
2024-01-26T01:30:09.170Z,100.00
2024-01-26T01:32:36.661Z,100.00
2024-01-26T01:35:04.122Z,100.00
2024-01-26T01:37:31.031Z,100.00
2024-01-26T01:39:57.994Z,100.00
2024-01-26T01:42:25.058Z,100.00
2024-01-26T01:44:52.419Z,100.00
2024-01-26T01:47:19.476Z,100.00
2024-01-26T01:49:47.432Z,100.00
2024-01-26T01:52:18.979Z,100.00
2024-01-26T01:54:46.063Z,100.00
2024-01-26T01:57:14.045Z,100.00
2024-01-26T01:59:42.856Z,100.00
2024-01-26T02:02:10.583Z,100.00
2024-01-26T02:04:37.570Z,100.00
2024-01-26T02:07:05.448Z,100.00
2024-01-26T02:09:32.727Z,100.00
2024-01-26T02:12:01.217Z,100.00
2024-01-26T02:14:28.311Z,100.00
2024-01-26T02:16:57.304Z,100.00
2024-01-26T02:19:26.360Z,100.00
2024-01-26T02:21:54.154Z,100.00
2024-01-26T02:24:21.358Z,100.00
2024-01-26T02:26:48.368Z,100.00
2024-01-26T02:29:15.423Z,100.00
2024-01-26T02:31:42.544Z,100.00
2024-01-26T02:34:12.594Z,100.00
2024-01-26T02:36:40.289Z,100.00
2024-01-26T02:39:07.463Z,100.00
2024-01-26T02:41:36.181Z,100.00
2024-01-26T02:44:03.816Z,100.00
2024-01-26T02:46:30.761Z,100.00
2024-01-26T02:48:57.910Z,100.00
2024-01-26T02:51:24.974Z,100.00
2024-01-26T02:53:51.991Z,100.00
2024-01-26T02:56:18.969Z,100.00
2024-01-26T02:58:45.866Z,100.00
2024-01-26T03:01:12.912Z,100.00
2024-01-26T03:03:39.906Z,100.00
2024-01-26T03:06:07.688Z,100.00
2024-01-26T03:08:34.612Z,100.00
2024-01-26T03:11:01.526Z,100.00
2024-01-26T03:13:28.433Z,100.00
2024-01-26T03:15:55.394Z,100.00
2024-01-26T03:18:22.862Z,100.00
2024-01-26T03:20:49.955Z,100.00
2024-01-26T03:23:16.948Z,100.00
2024-01-26T03:25:43.883Z,100.00
2024-01-26T03:28:12.714Z,100.00
2024-01-26T03:30:39.880Z,100.00
2024-01-26T03:33:08.537Z,100.00
2024-01-26T03:35:35.490Z,100.00
2024-01-26T03:38:03.703Z,100.00
2024-01-26T03:40:30.657Z,100.00
2024-01-26T03:42:57.779Z,100.00
2024-01-26T03:45:24.628Z,100.00
2024-01-26T03:47:51.744Z,100.00
2024-01-26T03:50:19.979Z,100.00
2024-01-26T03:52:47.056Z,100.00
2024-01-26T03:55:14.048Z,100.00
2024-01-26T03:57:42.989Z,100.00
2024-01-26T04:00:11.639Z,100.00
2024-01-26T04:02:41.606Z,100.00
2024-01-26T04:05:10.243Z,100.00
2024-01-26T04:07:37.164Z,100.00
2024-01-26T04:10:04.346Z,100.00
2024-01-26T04:12:31.335Z,100.00
2024-01-26T04:14:58.323Z,100.00
2024-01-26T04:17:25.190Z,100.00
2024-01-26T04:19:52.258Z,100.00
2024-01-26T04:22:19.234Z,100.00
2024-01-26T04:24:46.126Z,100.00
2024-01-26T04:27:13.051Z,100.00
2024-01-26T04:29:40.183Z,100.00
2024-01-26T04:32:07.486Z,100.00
2024-01-26T04:34:39.140Z,100.00
2024-01-26T04:37:06.960Z,100.00
2024-01-26T04:39:33.984Z,100.00
2024-01-26T04:42:00.972Z,100.00
2024-01-26T04:44:27.940Z,100.00
2024-01-26T04:46:56.518Z,100.00
2024-01-26T04:49:23.605Z,100.00
2024-01-26T04:51:50.775Z,100.00
2024-01-26T04:54:17.670Z,100.00
2024-01-26T04:56:44.838Z,100.00
2024-01-26T04:59:12.039Z,100.00
2024-01-26T05:01:41.401Z,100.00
2024-01-26T05:04:08.441Z,100.00
2024-01-26T05:06:35.530Z,100.00
2024-01-26T05:09:02.784Z,100.00
2024-01-26T05:11:30.073Z,100.00
2024-01-26T05:13:57.058Z,100.00
2024-01-26T05:16:24.027Z,100.00
2024-01-26T05:18:50.960Z,100.00
2024-01-26T05:21:18.117Z,100.00
2024-01-26T05:23:45.161Z,100.00
2024-01-26T05:26:12.553Z,100.00
2024-01-26T05:28:40.514Z,100.00
2024-01-26T05:31:07.466Z,100.00
2024-01-26T05:33:34.519Z,100.00
2024-01-26T05:36:01.548Z,100.00
2024-01-26T05:38:29.414Z,100.00
2024-01-26T05:40:57.639Z,100.00
2024-01-26T05:43:24.583Z,100.00
2024-01-26T05:45:51.575Z,100.00
2024-01-26T05:48:18.848Z,100.00
2024-01-26T05:50:46.701Z,100.00
2024-01-26T05:53:13.856Z,100.00
2024-01-26T05:55:40.819Z,100.00
2024-01-26T05:58:07.931Z,100.00
2024-01-26T06:00:35.064Z,100.00
2024-01-26T06:03:02.496Z,100.00
2024-01-26T06:05:29.703Z,100.00
2024-01-26T06:07:57.496Z,100.00
2024-01-26T06:10:25.052Z,100.00
2024-01-26T06:12:52.226Z,100.00
2024-01-26T06:15:19.536Z,100.00
2024-01-26T06:17:48.666Z,100.00
2024-01-26T06:20:15.669Z,100.00
2024-01-26T06:22:43.151Z,100.00
2024-01-26T06:25:10.137Z,100.00
2024-01-26T06:27:38.715Z,100.00
2024-01-26T06:30:06.954Z,100.00
2024-01-26T06:32:34.201Z,100.00
2024-01-26T06:35:01.371Z,100.00
2024-01-26T06:37:29.494Z,100.00
2024-01-26T06:39:56.800Z,100.00
2024-01-26T06:42:27.051Z,100.00
2024-01-26T06:44:57.325Z,100.00
2024-01-26T06:47:24.519Z,100.00
2024-01-26T06:49:51.571Z,100.00
2024-01-26T06:52:18.843Z,100.00
2024-01-26T06:54:46.816Z,100.00
2024-01-26T06:57:14.165Z,100.00
2024-01-26T06:59:41.263Z,100.00
2024-01-26T07:02:08.385Z,100.00
2024-01-26T07:04:35.552Z,100.00
2024-01-26T07:07:02.693Z,100.00
2024-01-26T07:09:30.531Z,100.00
2024-01-26T07:11:59.667Z,100.00
2024-01-26T07:14:27.077Z,100.00
2024-01-26T07:16:54.240Z,100.00
2024-01-26T07:19:21.516Z,100.00
2024-01-26T07:21:48.793Z,100.00
2024-01-26T07:24:16.064Z,100.00
2024-01-26T07:26:43.478Z,100.00
2024-01-26T07:29:11.560Z,100.00
2024-01-26T07:31:38.639Z,100.00
2024-01-26T07:34:06.288Z,100.00
2024-01-26T07:36:38.077Z,100.00
2024-01-26T07:39:06.969Z,100.00
2024-01-26T07:41:35.127Z,100.00
2024-01-26T07:44:02.449Z,100.00
2024-01-26T07:46:29.540Z,100.00
2024-01-26T07:48:57.120Z,100.00
2024-01-26T07:51:24.276Z,100.00
2024-01-26T07:53:51.391Z,100.00
2024-01-26T07:56:18.354Z,100.00
2024-01-26T07:58:45.281Z,100.00
2024-01-26T08:01:15.920Z,100.00
2024-01-26T08:03:43.298Z,100.00
2024-01-26T08:06:11.025Z,100.00
2024-01-26T08:08:38.499Z,100.00
2024-01-26T08:11:06.758Z,100.00
2024-01-26T08:13:33.699Z,100.00
2024-01-26T08:16:00.695Z,100.00
2024-01-26T08:18:27.935Z,100.00
2024-01-26T08:20:54.984Z,100.00
2024-01-26T08:23:22.250Z,100.00
2024-01-26T08:25:49.692Z,100.00
2024-01-26T08:28:16.746Z,100.00
2024-01-26T08:30:43.786Z,100.00
2024-01-26T08:33:10.929Z,100.00
2024-01-26T08:35:38.363Z,100.00
2024-01-26T08:38:06.199Z,100.00
2024-01-26T08:40:33.122Z,100.00
2024-01-26T08:43:00.117Z,100.00
2024-01-26T08:45:27.241Z,100.00
2024-01-26T08:47:55.349Z,100.00
2024-01-26T08:50:22.353Z,100.00
2024-01-26T08:52:50.218Z,100.00
2024-01-26T08:55:17.666Z,100.00
2024-01-26T08:57:44.772Z,100.00
2024-01-26T09:00:14.299Z,100.00
2024-01-26T09:02:41.644Z,100.00
2024-01-26T09:05:10.795Z,100.00
2024-01-26T09:07:37.869Z,100.00
2024-01-26T09:10:06.875Z,100.00
2024-01-26T09:12:34.232Z,100.00
2024-01-26T09:15:01.382Z,100.00
2024-01-26T09:17:28.400Z,100.00
2024-01-26T09:19:55.645Z,100.00
2024-01-26T09:22:22.848Z,100.00
2024-01-26T09:24:49.980Z,100.00
2024-01-26T09:27:17.712Z,100.00
2024-01-26T09:29:44.833Z,99.64
2024-01-26T09:32:11.825Z,100.00
2024-01-26T09:34:39.258Z,98.21
2024-01-26T09:37:06.634Z,95.36
2024-01-26T09:39:33.921Z,99.06
2024-01-26T09:42:01.489Z,96.58
2024-01-26T09:44:28.524Z,97.08
2024-01-26T09:46:55.521Z,97.36
2024-01-26T09:49:23.219Z,99.34
2024-01-26T09:51:50.615Z,100.00
2024-01-26T09:54:21.125Z,99.32
2024-01-26T09:56:49.930Z,98.05
2024-01-26T09:59:16.965Z,94.42
2024-01-26T10:01:47.277Z,95.30
2024-01-26T10:04:15.087Z,98.08
2024-01-26T10:06:42.934Z,96.61
2024-01-26T10:09:11.505Z,95.98
2024-01-26T10:11:38.704Z,96.80
2024-01-26T10:14:05.904Z,96.87
2024-01-26T10:16:32.916Z,97.29
2024-01-26T10:19:00.362Z,96.58
2024-01-26T10:21:27.582Z,94.35
2024-01-26T10:23:54.761Z,93.76
2024-01-26T10:26:21.804Z,88.25
2024-01-26T10:28:49.798Z,88.99
2024-01-26T10:31:17.631Z,90.11
2024-01-26T10:33:46.972Z,92.17
2024-01-26T10:36:15.521Z,87.12
2024-01-26T10:38:44.269Z,85.44
2024-01-26T10:41:18.811Z,84.99
2024-01-26T10:43:46.695Z,84.87
2024-01-26T10:46:15.295Z,87.28
2024-01-26T10:48:43.734Z,84.40
2024-01-26T10:51:12.689Z,83.07
2024-01-26T10:53:46.630Z,86.27
2024-01-26T10:56:13.784Z,85.29
2024-01-26T10:58:41.185Z,84.66
2024-01-26T11:01:08.693Z,86.25
2024-01-26T11:03:35.793Z,86.03
2024-01-26T11:06:02.984Z,84.92
2024-01-26T11:08:31.981Z,86.13
2024-01-26T11:11:00.032Z,84.97
2024-01-26T11:13:27.552Z,84.93
2024-01-26T11:16:04.555Z,79.87
2024-01-26T11:18:36.422Z,76.05
2024-01-26T11:21:04.451Z,77.49
2024-01-26T11:23:45.858Z,82.09
2024-01-26T11:26:17.268Z,83.61
2024-01-26T11:28:46.738Z,82.55
2024-01-26T11:31:14.462Z,76.45
2024-01-26T11:33:42.112Z,80.05
2024-01-26T11:36:13.672Z,84.59
2024-01-26T11:38:42.329Z,76.45
2024-01-26T11:41:12.027Z,77.78
2024-01-26T11:43:45.303Z,80.93
2024-01-26T11:46:13.278Z,76.98
2024-01-26T11:48:42.187Z,79.87
2024-01-26T11:51:10.186Z,74.93
2024-01-26T11:53:37.538Z,78.76
2024-01-26T11:56:05.698Z,78.89
2024-01-26T11:58:33.789Z,79.67
2024-01-26T12:01:03.420Z,78.53
2024-01-26T12:03:31.405Z,74.64
2024-01-26T12:05:59.020Z,74.50
2024-01-26T12:08:26.420Z,75.27
2024-01-26T12:10:53.765Z,72.51
2024-01-26T12:13:21.803Z,73.01
2024-01-26T12:15:49.096Z,73.14
2024-01-26T12:18:17.602Z,74.29
2024-01-26T12:20:47.789Z,72.06
2024-01-26T12:23:22.198Z,70.13
2024-01-26T12:25:55.432Z,71.85
2024-01-26T12:28:28.677Z,72.36
2024-01-26T12:30:55.919Z,73.48
2024-01-26T12:33:24.376Z,71.54
2024-01-26T12:35:53.300Z,72.27
2024-01-26T12:38:20.801Z,73.60
2024-01-26T12:40:49.094Z,71.05
2024-01-26T12:43:17.155Z,68.42
2024-01-26T12:45:44.361Z,69.35
2024-01-26T12:48:11.980Z,71.61
2024-01-26T12:50:39.069Z,68.36
2024-01-26T12:53:06.363Z,66.90
2024-01-26T12:55:33.442Z,71.69
2024-01-26T12:58:00.677Z,68.40
2024-01-26T13:00:29.157Z,69.11
2024-01-26T13:03:05.512Z,66.71
2024-01-26T13:05:32.931Z,70.60
2024-01-26T13:08:00.180Z,71.11
2024-01-26T13:10:27.410Z,70.22
2024-01-26T13:12:54.388Z,68.29
2024-01-26T13:15:22.620Z,66.90
2024-01-26T13:17:51.081Z,66.76
2024-01-26T13:20:21.141Z,67.93
2024-01-26T13:22:49.834Z,69.00
2024-01-26T13:25:17.135Z,71.28
2024-01-26T13:27:44.562Z,71.16
2024-01-26T13:30:13.297Z,68.95
2024-01-26T13:32:40.688Z,66.38
2024-01-26T13:35:08.793Z,66.19
2024-01-26T13:37:36.891Z,65.41
2024-01-26T13:40:07.284Z,69.34
2024-01-26T13:42:35.217Z,68.57
2024-01-26T13:45:03.631Z,64.48
2024-01-26T13:47:30.716Z,65.24
2024-01-26T13:49:58.077Z,64.78
2024-01-26T13:52:25.239Z,63.06
2024-01-26T13:54:52.210Z,63.95
2024-01-26T13:57:19.321Z,63.54
2024-01-26T13:59:46.642Z,63.14
2024-01-26T14:02:13.711Z,63.69
2024-01-26T14:04:40.639Z,62.91
2024-01-26T14:07:07.992Z,63.01
2024-01-26T14:09:36.034Z,63.95
2024-01-26T14:12:05.021Z,63.28
2024-01-26T14:14:32.403Z,60.94
2024-01-26T14:16:59.410Z,60.04
2024-01-26T14:19:26.692Z,55.48
2024-01-26T14:21:55.559Z,53.51
2024-01-26T14:24:22.919Z,51.79
2024-01-26T14:26:49.921Z,50.61
2024-01-26T14:29:19.080Z,51.35
2024-01-26T14:31:47.549Z,56.25
2024-01-26T14:34:14.768Z,57.58
2024-01-26T14:36:44.236Z,61.81
2024-01-26T14:39:12.493Z,65.22
2024-01-26T14:41:39.766Z,67.54
2024-01-26T14:44:06.729Z,68.67
2024-01-26T14:46:35.082Z,70.07
2024-01-26T14:49:04.933Z,69.08
2024-01-26T14:51:31.949Z,63.58
2024-01-26T14:53:59.808Z,57.33
2024-01-26T14:56:26.905Z,56.52
2024-01-26T14:58:53.864Z,57.83
2024-01-26T15:01:20.819Z,56.50
2024-01-26T15:03:47.945Z,54.58
2024-01-26T15:06:15.024Z,54.75
2024-01-26T15:08:43.324Z,55.01
2024-01-26T15:11:10.315Z,56.57
2024-01-26T15:13:39.630Z,60.29
2024-01-26T15:16:08.447Z,64.67
2024-01-26T15:18:36.120Z,68.28
2024-01-26T15:21:03.586Z,69.96
2024-01-26T15:23:30.600Z,72.61
2024-01-26T15:25:57.527Z,73.10
2024-01-26T15:28:24.483Z,75.62
2024-01-26T15:30:51.574Z,77.25
2024-01-26T15:33:18.729Z,77.50
2024-01-26T15:35:45.920Z,78.47
2024-01-26T15:38:14.058Z,79.50
2024-01-26T15:40:41.010Z,80.21
2024-01-26T15:43:08.023Z,80.41
2024-01-26T15:45:35.663Z,81.08
2024-01-26T15:48:02.857Z,81.69
2024-01-26T15:50:29.933Z,81.33
2024-01-26T15:52:56.848Z,82.39
2024-01-26T15:55:23.963Z,81.80
2024-01-26T15:57:50.918Z,81.39
2024-01-26T16:00:18.539Z,82.56
2024-01-26T16:02:45.596Z,82.96
2024-01-26T16:05:13.256Z,83.47
2024-01-26T16:07:40.337Z,83.65
2024-01-26T16:10:08.520Z,84.19
2024-01-26T16:12:37.591Z,85.18
2024-01-26T16:15:07.465Z,86.41
2024-01-26T16:17:34.998Z,87.50
2024-01-26T16:20:02.162Z,88.34
2024-01-26T16:22:29.141Z,89.24
2024-01-26T16:24:56.111Z,89.32
2024-01-26T16:27:23.357Z,89.40
2024-01-26T16:29:50.534Z,88.36
2024-01-26T16:32:17.574Z,88.35
2024-01-26T16:34:44.498Z,87.81
2024-01-26T16:37:11.415Z,87.83
2024-01-26T16:39:39.943Z,87.99
2024-01-26T16:42:07.094Z,87.31
2024-01-26T16:44:34.015Z,88.29
2024-01-26T16:47:00.930Z,88.93
2024-01-26T16:49:28.841Z,88.18
2024-01-26T16:52:01.783Z,88.55
2024-01-26T16:54:30.250Z,89.55
2024-01-26T16:56:57.202Z,90.00
2024-01-26T16:59:24.238Z,90.22
2024-01-26T17:01:52.767Z,90.49
2024-01-26T17:04:21.207Z,89.99
2024-01-26T17:06:48.297Z,90.43
2024-01-26T17:09:15.539Z,91.17
2024-01-26T17:11:42.632Z,91.53
2024-01-26T17:14:09.625Z,91.70
2024-01-26T17:16:36.585Z,91.69
2024-01-26T17:19:03.572Z,92.85
2024-01-26T17:21:30.547Z,92.99
2024-01-26T17:23:57.592Z,92.64
2024-01-26T17:26:24.514Z,92.47
2024-01-26T17:28:51.560Z,91.22
2024-01-26T17:31:19.870Z,91.94
2024-01-26T17:33:48.138Z,91.32
2024-01-26T17:36:16.595Z,91.58
2024-01-26T17:38:43.687Z,91.95
2024-01-26T17:41:10.854Z,92.88
2024-01-26T17:43:37.863Z,92.19
2024-01-26T17:46:05.088Z,92.34
2024-01-26T17:48:32.948Z,92.79
2024-01-26T17:51:00.255Z,93.31
2024-01-26T17:53:27.272Z,93.69
2024-01-26T17:55:54.658Z,94.60
2024-01-26T17:58:21.687Z,94.87
2024-01-26T18:00:48.862Z,94.57
2024-01-26T18:03:15.974Z,95.02
2024-01-26T18:05:43.027Z,94.51
2024-01-26T18:08:10.106Z,94.35
2024-01-26T18:10:37.346Z,95.39
2024-01-26T18:13:04.535Z,94.33
2024-01-26T18:15:31.540Z,95.56
2024-01-26T18:17:58.635Z,94.74
2024-01-26T18:20:25.764Z,94.73
2024-01-26T18:22:53.538Z,94.23
2024-01-26T18:25:20.481Z,93.06
2024-01-26T18:27:47.565Z,93.97
2024-01-26T18:30:15.033Z,94.27
2024-01-26T18:32:42.201Z,93.87
2024-01-26T18:35:10.942Z,94.22
2024-01-26T18:37:38.554Z,93.61
2024-01-26T18:40:06.431Z,93.83
2024-01-26T18:42:33.329Z,94.99
2024-01-26T18:45:00.362Z,96.43
2024-01-26T18:47:27.297Z,98.04
2024-01-26T18:49:54.454Z,97.83
2024-01-26T18:52:23.387Z,98.49
2024-01-26T18:54:52.437Z,98.87
2024-01-26T18:57:19.643Z,98.97
2024-01-26T18:59:47.005Z,99.17
2024-01-26T19:02:15.324Z,99.94
2024-01-26T19:04:42.753Z,100.00
2024-01-26T19:07:09.961Z,100.00
2024-01-26T19:09:37.896Z,100.00
2024-01-26T19:12:07.421Z,100.00
2024-01-26T19:14:34.690Z,100.00
2024-01-26T19:17:01.695Z,100.00
2024-01-26T19:19:28.777Z,100.00
2024-01-26T19:21:56.512Z,100.00
2024-01-26T19:24:24.468Z,100.00
2024-01-26T19:26:52.493Z,100.00
2024-01-26T19:29:19.528Z,100.00
2024-01-26T19:31:48.481Z,100.00
2024-01-26T19:34:15.693Z,100.00
2024-01-26T19:36:43.702Z,100.00
2024-01-26T19:39:12.987Z,100.00
2024-01-26T19:41:40.065Z,100.00
2024-01-26T19:44:07.244Z,100.00
2024-01-26T19:46:34.231Z,100.00
2024-01-26T19:49:01.397Z,100.00
2024-01-26T19:51:28.529Z,100.00
2024-01-26T19:53:55.553Z,100.00
2024-01-26T19:56:22.481Z,100.00
2024-01-26T19:58:49.404Z,100.00
2024-01-26T20:01:17.995Z,100.00
2024-01-26T20:03:45.945Z,100.00
2024-01-26T20:06:14.824Z,100.00
2024-01-26T20:08:43.756Z,100.00
2024-01-26T20:11:11.040Z,100.00
2024-01-26T20:13:38.389Z,100.00
2024-01-26T20:16:10.412Z,100.00
2024-01-26T20:18:38.321Z,100.00
2024-01-26T20:21:08.421Z,100.00
2024-01-26T20:23:36.442Z,100.00
2024-01-26T20:26:07.349Z,100.00
2024-01-26T20:28:34.612Z,100.00
2024-01-26T20:31:01.611Z,100.00
2024-01-26T20:33:28.880Z,100.00
2024-01-26T20:35:56.430Z,100.00
2024-01-26T20:38:23.374Z,100.00
2024-01-26T20:40:50.370Z,100.00
2024-01-26T20:43:18.789Z,100.00
2024-01-26T20:45:48.005Z,100.00
2024-01-26T20:48:18.549Z,100.00
2024-01-26T20:50:45.711Z,100.00
2024-01-26T20:53:12.866Z,100.00
2024-01-26T20:55:39.735Z,100.00
2024-01-26T20:58:06.816Z,100.00
2024-01-26T21:00:34.111Z,100.00
2024-01-26T21:03:01.309Z,100.00
2024-01-26T21:05:32.989Z,100.00
2024-01-26T21:08:01.624Z,100.00
2024-01-26T21:10:29.528Z,100.00
2024-01-26T21:12:57.266Z,100.00
2024-01-26T21:15:25.178Z,100.00
2024-01-26T21:17:52.332Z,100.00
2024-01-26T21:20:19.609Z,100.00
2024-01-26T21:22:54.262Z,100.00
2024-01-26T21:25:21.406Z,100.00
2024-01-26T21:27:49.803Z,100.00
2024-01-26T21:30:17.146Z,100.00
2024-01-26T21:32:44.415Z,100.00
2024-01-26T21:35:13.182Z,100.00
2024-01-26T21:37:42.782Z,100.00
2024-01-26T21:40:10.629Z,100.00
2024-01-26T21:42:38.056Z,100.00
2024-01-26T21:45:05.702Z,100.00
2024-01-26T21:47:33.090Z,100.00
2024-01-26T21:50:00.379Z,100.00
2024-01-26T21:52:28.018Z,100.00
2024-01-26T21:54:55.535Z,100.00
2024-01-26T21:57:22.896Z,100.00
2024-01-26T21:59:52.206Z,100.00
2024-01-26T22:02:21.289Z,100.00
2024-01-26T22:04:48.500Z,100.00
2024-01-26T22:07:15.607Z,100.00
2024-01-26T22:09:45.442Z,100.00
2024-01-26T22:12:12.786Z,100.00
2024-01-26T22:14:39.761Z,100.00
2024-01-26T22:17:06.713Z,100.00
2024-01-26T22:19:33.795Z,100.00
2024-01-26T22:22:00.766Z,100.00
2024-01-26T22:24:27.667Z,100.00
2024-01-26T22:26:54.725Z,100.00
2024-01-26T22:29:21.705Z,100.00
2024-01-26T22:31:48.724Z,100.00
2024-01-26T22:34:15.791Z,100.00
2024-01-26T22:36:42.760Z,100.00
2024-01-26T22:39:10.026Z,100.00
2024-01-26T22:41:37.038Z,100.00
2024-01-26T22:44:05.515Z,100.00
2024-01-26T22:46:33.276Z,100.00
2024-01-26T22:49:00.263Z,100.00
2024-01-26T22:51:27.332Z,100.00
2024-01-26T22:53:54.286Z,100.00
2024-01-26T22:56:21.277Z,100.00
2024-01-26T22:58:48.319Z,100.00
2024-01-26T23:01:15.282Z,100.00
2024-01-26T23:03:42.487Z,100.00
2024-01-26T23:06:15.598Z,100.00
2024-01-26T23:08:44.720Z,100.00
2024-01-26T23:11:11.715Z,100.00
2024-01-26T23:13:38.635Z,100.00
2024-01-26T23:16:06.080Z,100.00
2024-01-26T23:18:33.217Z,100.00
2024-01-26T23:21:01.794Z,100.00
2024-01-26T23:23:28.902Z,100.00
2024-01-26T23:25:57.841Z,100.00
2024-01-26T23:28:25.265Z,100.00
2024-01-26T23:30:52.161Z,100.00
2024-01-26T23:33:19.286Z,100.00
2024-01-26T23:35:46.493Z,100.00
2024-01-26T23:38:13.491Z,100.00
2024-01-26T23:40:40.536Z,100.00
2024-01-26T23:43:07.583Z,100.00
2024-01-26T23:45:34.520Z,100.00
2024-01-26T23:48:01.598Z,100.00
2024-01-26T23:50:28.629Z,100.00
2024-01-26T23:52:55.521Z,100.00
2024-01-26T23:55:22.431Z,100.00
2024-01-26T23:57:49.607Z,100.00
